KBFI/BFI METAR and TAF weather

Enter ICAO airport designator
Station Type Date Time Source
KBFI METAR 2021/09/24 02:53 UTC NOAA

KBFI 240253Z VRB03KT 10SM CLR 17/11 A3024 RMK AO2 SLP239 T01720106 56007


Station Type Date Time Source
KBFI Decoded METAR 2021/09/24 02:53 UTC NOAA

SEATTLE BOEING FIELD, WA, United States (KBFI) 47-33N 122-19W 4M
Sep 23, 2021 - 10:53 PM EDT / 2021.09.24 0253 UTC
Wind: Variable at 3 MPH (3 KT):0
Visibility: 10 mile(s):0
Sky conditions: clear
Temperature: 63.0 F (17.2 C)
Dew Point: 51.1 F (10.6 C)
Relative Humidity: 65%
Pressure (altimeter): 30.24 in. Hg (1024 hPa)
Pressure tendency: 0.02 inches (0.7 hPa) lower than three hours ago
ob: KBFI 240253Z VRB03KT 10SM CLR 17/11 A3024 RMK AO2 SLP239 T01720106 56007
cycle: 3

Station Type Date Time Source
KBFI TAF 2021/09/23 21:54 UTC NOAA

TAF
AMD KBFI 232052Z 2321/2418 31007KT P6SM SKC
FM240600 VRB03KT P6SM SCT250
FM241200 33003KT P6SM SCT250

Example: see airport list